| time (UTC) | temp C | wind direction | speed KPH | gust KPH | rain 1hr cm | rain 24hr cm | rain mn cm | humidity % | barometer mb |
| 20260505072622 | 19 | 9 | 8.0 | 20.9 | 0.00 | 0.00 | 0.00 | 65 | 1008.2 |
| 20260505071625 | 19 | 350 | 6.4 | 17.7 | 0.00 | 0.00 | 0.00 | 64 | 1008.2 |
| 20260505070633 | 19 | 13 | 6.4 | 16.1 | 0.00 | 0.00 | 0.00 | 64 | 1008.4 |
| 20260505064519 | 19 | 274 | 4.8 | 17.7 | 0.00 | 0.00 | 0.00 | 64 | 1008.4 |
| 20260505063504 | 19 | 12 | 4.8 | 20.9 | 0.00 | 0.00 | 0.00 | 64 | 1008.4 |
| 20260505062516 | 19 | 343 | 6.4 | 20.9 | 0.00 | 0.00 | 0.00 | 64 | 1008.3 |
| 20260505061533 | 19 | 325 | 6.4 | 19.3 | 0.00 | 0.00 | 0.00 | 64 | 1008.3 |
| 20260505060546 | 19 | 350 | 8.0 | 19.3 | 0.00 | 0.00 | 0.00 | 64 | 1008.2 |
| 20260505055533 | 19 | 341 | 6.4 | 19.3 | 0.00 | 0.00 | 0.00 | 64 | 1008.3 |
| 20260505054514 | 20 | 344 | 8.0 | 17.7 | 0.00 | 0.00 | 0.00 | 64 | 1008.2 |
| 20260505053524 | 20 | 319 | 8.0 | 19.3 | 0.00 | 0.00 | 0.00 | 65 | 1008.2 |
| 20260505052507 | 20 | 338 | 8.0 | 19.3 | 0.00 | 0.00 | 0.00 | 65 | 1008.1 |
| 20260505051434 | 20 | 355 | 6.4 | 19.3 | 0.00 | 0.00 | 0.00 | 65 | 1008.3 |
| 20260505050454 | 20 | 0 | 6.4 | 19.3 | 0.00 | 0.00 | 0.00 | 65 | 1008.3 |
| 20260505040333 | 20 | 28 | 3.2 | 11.3 | 0.00 | 0.00 | 0.00 | 67 | 1008.8 |
| 20260505035353 | 20 | 355 | 3.2 | 12.9 | 0.00 | 0.00 | 0.00 | 67 | 1008.6 |
| 20260505034353 | 20 | 351 | 3.2 | 12.9 | 0.00 | 0.00 | 0.00 | 67 | 1008.6 |
| 20260505033327 | 20 | 18 | 3.2 | 11.3 | 0.00 | 0.00 | 0.00 | 67 | 1008.4 |
| 20260505032304 | 20 | 343 | 1.6 | 8.0 | 0.00 | 0.00 | 0.00 | 67 | 1008.4 |
| 20260505031237 | 20 | 350 | 1.6 | 8.0 | 0.00 | 0.00 | 0.00 | 67 | 1008.4 |
| 20260505025108 | 20 | 336 | 3.2 | 11.3 | 0.00 | 0.00 | 0.00 | 68 | 1008.3 |
| 20260505024110 | 20 | 10 | 1.6 | 9.7 | 0.00 | 0.00 | 0.00 | 69 | 1008.2 |
| 20260505023121 | 19 | 5 | 0.0 | 4.8 | 0.00 | 0.00 | 0.00 | 73 | 1008.1 |
| 20260505022049 | 20 | 355 | 1.6 | 8.0 | 0.00 | 0.00 | 0.00 | 69 | 1007.9 |
| 20260505021016 | 20 | 0 | 0.0 | 8.0 | 0.00 | 0.00 | 0.00 | 66 | 1007.7 |
| 20260505015953 | 21 | 343 | 1.6 | 8.0 | 0.00 | 0.00 | 0.00 | 65 | 1007.5 |
| 20260505011537 | 22 | 0 | 1.6 | 4.8 | 0.00 | 0.00 | 0.00 | 61 | 1007.2 |
| 20260505010548 | 22 | 0 | 1.6 | 11.3 | 0.00 | 0.00 | 0.00 | 59 | 1007.2 |
| 20260505005526 | 22 | 350 | 1.6 | 11.3 | 0.00 | 0.00 | 0.00 | 57 | 1007.2 |
| 20260505004533 | 23 | 345 | 1.6 | 11.3 | 0.00 | 0.00 | 0.00 | 56 | 1007.2 |
| 20260505003458 | 23 | 355 | 3.2 | 14.5 | 0.00 | 0.00 | 0.00 | 56 | 1007.4 |
| 20260505001337 | 23 | 339 | 4.8 | 14.5 | 0.00 | 0.00 | 0.00 | 55 | 1007.5 |
| 20260505000402 | 23 | 336 | 6.4 | 22.5 | 0.00 | 0.00 | 0.00 | 55 | 1007.6 |
| 20260504235332 | 24 | 333 | 9.7 | 22.5 | 0.00 | 0.00 | 0.00 | 54 | 1007.4 |
| 20260504234319 | 24 | 320 | 6.4 | 22.5 | 0.00 | 0.00 | 0.00 | 54 | 1007.5 |
| 20260504233323 | 24 | 15 | 4.8 | 16.1 | 0.00 | 0.00 | 0.00 | 54 | 1007.7 |
| 20260504232313 | 24 | 5 | 4.8 | 16.1 | 0.00 | 0.00 | 0.00 | 53 | 1007.9 |
| 20260504231257 | 25 | 18 | 4.8 | 16.1 | 0.00 | 0.00 | 0.00 | 52 | 1007.9 |
| 20260504230301 | 25 | 350 | 4.8 | 16.1 | 0.00 | 0.00 | 0.00 | 52 | 1008.0 |
| 20260504225255 | 25 | 335 | 6.4 | 25.7 | 0.00 | 0.00 | 0.00 | 52 | 1008.2 |
| 20260504224250 | 25 | 328 | 8.0 | 25.7 | 0.00 | 0.00 | 0.00 | 52 | 1008.2 |
| 20260504223216 | 25 | 61 | 6.4 | 24.1 | 0.00 | 0.00 | 0.00 | 51 | 1008.3 |
| 20260504222149 | 25 | 5 | 6.4 | 24.1 | 0.00 | 0.00 | 0.00 | 51 | 1008.2 |
| 20260504221135 | 25 | 284 | 4.8 | 16.1 | 0.00 | 0.00 | 0.00 | 50 | 1008.7 |
| 20260504220118 | 25 | 355 | 4.8 | 16.1 | 0.00 | 0.00 | 0.00 | 51 | 1008.5 |
| 20260504215142 | 25 | 27 | 4.8 | 22.5 | 0.00 | 0.00 | 0.00 | 51 | 1008.6 |
| 20260504214202 | 25 | 62 | 8.0 | 22.5 | 0.00 | 0.00 | 0.00 | 50 | 1008.8 |
| 20260504213221 | 25 | 21 | 4.8 | 14.5 | 0.00 | 0.00 | 0.00 | 49 | 1008.7 |
| 20260504212233 | 26 | 165 | 6.4 | 19.3 | 0.00 | 0.00 | 0.00 | 48 | 1008.9 |
| 20260504211230 | 25 | 140 | 6.4 | 19.3 | 0.00 | 0.00 | 0.00 | 48 | 1008.8 |
| 20260504210218 | 25 | 60 | 4.8 | 19.3 | 0.00 | 0.00 | 0.00 | 52 | 1008.8 |
| 20260504205150 | 25 | 303 | 4.8 | 25.7 | 0.00 | 0.00 | 0.00 | 51 | 1008.9 |
| 20260504204203 | 25 | 328 | 6.4 | 25.7 | 0.00 | 0.00 | 0.00 | 52 | 1008.9 |
| 20260504203223 | 25 | 320 | 8.0 | 25.7 | 0.00 | 0.00 | 0.00 | 53 | 1009.1 |
| 20260504201136 | 25 | 5 | 6.4 | 19.3 | 0.00 | 0.00 | 0.00 | 56 | 1009.3 |
| 20260504194949 | 25 | 311 | 4.8 | 22.5 | 0.00 | 0.00 | 0.00 | 55 | 1009.7 |
| 20260504194013 | 25 | 194 | 6.4 | 22.5 | 0.00 | 0.00 | 0.00 | 55 | 1009.7 |
| 20260504193020 | 24 | 335 | 4.8 | 19.3 | 0.00 | 0.00 | 0.00 | 55 | 1009.8 |
| 20260504191950 | 24 | 98 | 4.8 | 20.9 | 0.00 | 0.00 | 0.00 | 55 | 1010.1 |
| 20260504185806 | 24 | 47 | 4.8 | 19.3 | 0.00 | 0.00 | 0.00 | 57 | 1010.2 |
| 20260504184802 | 23 | 322 | 6.4 | 22.5 | 0.00 | 0.00 | 0.00 | 57 | 1010.1 |
| 20260504183735 | 23 | 347 | 6.4 | 22.5 | 0.00 | 0.00 | 0.00 | 58 | 1010.2 |
| 20260504181535 | 22 | 355 | 9.7 | 30.6 | 0.00 | 0.00 | 0.00 | 60 | 1010.0 |
| 20260504180557 | 22 | 54 | 9.7 | 24.1 | 0.00 | 0.00 | 0.00 | 61 | 1010.2 |
| 20260504175527 | 22 | 326 | 6.4 | 29.0 | 0.00 | 0.00 | 0.00 | 62 | 1010.1 |
| 20260504174518 | 21 | 350 | 11.3 | 29.0 | 0.00 | 0.00 | 0.00 | 64 | 1010.4 |
| 20260504173459 | 21 | 351 | 8.0 | 20.9 | 0.00 | 0.00 | 0.00 | 63 | 1010.5 |
| 20260504172517 | 21 | 26 | 9.7 | 22.5 | 0.00 | 0.00 | 0.00 | 64 | 1010.4 |
| 20260504171448 | 20 | 342 | 11.3 | 27.4 | 0.00 | 0.00 | 0.00 | 65 | 1010.5 |
| 20260504170414 | 20 | 338 | 12.9 | 29.0 | 0.00 | 0.00 | 0.00 | 66 | 1010.5 |
| 20260504160323 | 17 | 355 | 4.8 | 17.7 | 0.00 | 0.00 | 0.00 | 70 | 1011.8 |
| 20260504130702 | 13 | 355 | 8.0 | 25.7 | 0.00 | 0.00 | 0.00 | 76 | 1012.1 |
| 20260504110244 | 13 | 348 | 3.2 | 17.7 | 0.00 | 0.00 | 0.00 | 71 | 1012.1 |
| 20260504081637 | 13 | 9 | 3.2 | 16.1 | 0.00 | 0.00 | 0.00 | 65 | 1012.8 |
| 20260504080643 | 13 | 314 | 4.8 | 12.9 | 0.00 | 0.00 | 0.00 | 65 | 1012.8 |